Westbury, United Kingdom
Current Conditions -  °F | °C
As of 1:50 PM on Thursday 30 Oct 2014 (Local Time) from EGDM Reporting Station
Broken Clouds Broken Clouds  
Wind Chill: 63°   Ceiling: 1500
Heat Index: 63°   Visibility: 6mi
Dew Point: 59°   Wind: 8mph
Humidity: 88%   Direction: 160°SSE
Pressure: 30.03"   Gusts: NA
Location:  51.25°N, 2.2°W
Report Text: EGDM 301350Z 16007KT 9999 SCT010 BKN015 17/15 Q1017 GRN BECMG SCT015 WHT
Loading
Personal Weather Stations






























Interactive Weather Map
Tropical Storm Tracking
New forecast layout! Learn more

10-Day Weather Forecast

Advertisements
Track Severe Weather on mobile